Terminal Aerodrome Forecast
Issued by NWS

Home | Current Version | Previous Version | Graphics & Text | Print | Product List | Glossary On
Versions: 1 2 3 4 5 6 7 8 9 10 11 12 13 14 15 16 17 18 19 20 21 22 23 24 25
000
FTUS43 KBIS 262300
TAFJMS
TAF
KJMS 262336Z 2700/2724 27006KT P6SM -SHRA SCT010 OVC080
     FM270300 22006KT P6SM BKN080
     FM270600 18006KT P6SM SKC
      TEMPO 2710/2714 5SM BR SCT010
     FM271500 15006KT P6SM SKC=

USA.gov is the U.S. government's official web portal to all federal, state and local government web resources and services.